createdAt,value
2018-05-15T00:00:05.005Z,94595
2018-05-15T00:02:33.061Z,94589
2018-05-15T00:05:01.116Z,94591
2018-05-15T00:07:29.172Z,94597
2018-05-15T00:09:57.219Z,94589
2018-05-15T00:12:25.285Z,94594
2018-05-15T00:14:53.332Z,94587
2018-05-15T00:17:21.392Z,94589
2018-05-15T00:19:49.452Z,94589
2018-05-15T00:22:17.516Z,94584
2018-05-15T00:24:45.571Z,94594
2018-05-15T00:27:13.635Z,94589
2018-05-15T00:29:41.680Z,94592
2018-05-15T00:32:10.606Z,94591
2018-05-15T00:34:38.652Z,94596
2018-05-15T00:37:06.708Z,94604
2018-05-15T00:39:34.776Z,94606
2018-05-15T00:42:02.848Z,94601
2018-05-15T00:44:30.887Z,94593
2018-05-15T00:46:58.968Z,94588
2018-05-15T00:49:27.027Z,94595
2018-05-15T00:51:55.092Z,94590
2018-05-15T00:54:23.142Z,94594
2018-05-15T00:56:51.213Z,94595
2018-05-15T00:59:19.264Z,94586
2018-05-15T01:01:47.324Z,94597
2018-05-15T01:04:15.399Z,94601
2018-05-15T01:06:43.457Z,94590
2018-05-15T01:09:11.513Z,94588
2018-05-15T01:11:39.568Z,94584
2018-05-15T01:14:07.615Z,94588
2018-05-15T01:16:35.688Z,94592
2018-05-15T01:19:03.762Z,94576
2018-05-15T01:21:31.800Z,94583
2018-05-15T01:23:59.846Z,94584
2018-05-15T01:26:28.596Z,94576
2018-05-15T01:28:56.659Z,94589
2018-05-15T01:31:24.732Z,94588
2018-05-15T01:33:52.776Z,94595
2018-05-15T01:36:20.836Z,94593
2018-05-15T01:38:48.884Z,94590
2018-05-15T01:41:16.948Z,94591
2018-05-15T01:43:45.000Z,94590
2018-05-15T01:46:13.059Z,94597
2018-05-15T01:48:41.113Z,94594
2018-05-15T01:51:09.172Z,94603
2018-05-15T01:53:37.234Z,94599
2018-05-15T01:56:05.302Z,94603
2018-05-15T01:58:33.361Z,94605
2018-05-15T02:01:01.414Z,94607
2018-05-15T02:03:29.472Z,94611
2018-05-15T02:05:57.532Z,94610
2018-05-15T02:08:25.601Z,94614
2018-05-15T02:10:53.648Z,94619
2018-05-15T02:13:21.720Z,94615
2018-05-15T02:15:49.779Z,94616
2018-05-15T02:18:17.840Z,94613
2018-05-15T02:20:45.896Z,94612
2018-05-15T02:23:13.969Z,94611
2018-05-15T02:25:42.028Z,94614
2018-05-15T02:28:10.097Z,94610
2018-05-15T02:30:38.166Z,94610
2018-05-15T02:33:06.240Z,94617
2018-05-15T02:35:34.292Z,94616
2018-05-15T02:38:02.376Z,94624
2018-05-15T02:40:30.436Z,94625
2018-05-15T02:42:58.485Z,94627
2018-05-15T02:45:26.561Z,94630
2018-05-15T02:47:54.625Z,94627
2018-05-15T02:50:22.689Z,94629
2018-05-15T02:52:50.753Z,94634
2018-05-15T02:55:18.818Z,94630
2018-05-15T02:57:46.884Z,94632
2018-05-15T03:00:14.952Z,94627
2018-05-15T03:02:43.008Z,94629
2018-05-15T03:05:11.060Z,94627
2018-05-15T03:07:39.124Z,94634
2018-05-15T03:10:07.180Z,94629
2018-05-15T03:12:35.249Z,94631
2018-05-15T03:15:03.304Z,94641
2018-05-15T03:17:31.364Z,94636
2018-05-15T03:19:59.422Z,94642
2018-05-15T03:22:28.605Z,94638
2018-05-15T03:24:56.668Z,94641
2018-05-15T03:27:24.741Z,94650
2018-05-15T03:29:52.794Z,94645
2018-05-15T03:32:20.866Z,94648
2018-05-15T03:34:48.938Z,94651
2018-05-15T03:37:17.009Z,94649
2018-05-15T03:39:45.088Z,94656
2018-05-15T03:42:13.153Z,94657
2018-05-15T03:44:41.212Z,94664
2018-05-15T03:47:09.273Z,94658
2018-05-15T03:49:37.335Z,94664
2018-05-15T03:52:05.401Z,94671
2018-05-15T03:54:33.470Z,94666
2018-05-15T03:57:01.525Z,94667
2018-05-15T03:59:29.581Z,94675
2018-05-15T04:02:15.421Z,94670
2018-05-15T04:05:01.817Z,94674
2018-05-15T04:07:47.590Z,94677
2018-05-15T04:10:15.632Z,94692
2018-05-15T04:12:43.698Z,94697
2018-05-15T04:15:11.747Z,94696
2018-05-15T04:17:39.814Z,94693
2018-05-15T04:20:07.868Z,94690
2018-05-15T04:22:35.928Z,94697
2018-05-15T04:25:03.989Z,94690
2018-05-15T04:27:32.059Z,94699
2018-05-15T04:30:00.118Z,94698
2018-05-15T04:32:28.680Z,94702
2018-05-15T04:34:56.759Z,94695
2018-05-15T04:37:24.801Z,94711
2018-05-15T04:39:52.878Z,94708
2018-05-15T04:42:20.933Z,94715
2018-05-15T04:44:48.996Z,94721
2018-05-15T04:47:17.056Z,94711
2018-05-15T04:49:45.116Z,94719
2018-05-15T04:52:13.184Z,94714
2018-05-15T04:54:41.256Z,94719
2018-05-15T04:57:09.312Z,94716
2018-05-15T04:59:37.380Z,94715
2018-05-15T05:02:05.501Z,94719
2018-05-15T05:04:33.500Z,94724
2018-05-15T05:07:01.561Z,94735
2018-05-15T05:09:29.633Z,94724
2018-05-15T05:11:57.688Z,94731
2018-05-15T05:14:25.775Z,94721
2018-05-15T05:16:53.833Z,94718
2018-05-15T05:19:21.889Z,94721
2018-05-15T05:21:49.940Z,94724
2018-05-15T05:24:18.000Z,94728
2018-05-15T05:26:46.069Z,94725
2018-05-15T05:29:14.164Z,94727
2018-05-15T05:31:42.205Z,94728
2018-05-15T05:34:10.293Z,94731
2018-05-15T05:36:38.364Z,94738
2018-05-15T05:39:06.446Z,94746
2018-05-15T05:41:34.500Z,94747
2018-05-15T05:44:02.556Z,94746
2018-05-15T05:46:30.670Z,94750
2018-05-15T05:48:58.687Z,94746
2018-05-15T05:51:26.752Z,94738
2018-05-15T05:53:54.824Z,94751
2018-05-15T05:56:22.880Z,94762
2018-05-15T05:58:51.725Z,94756
2018-05-15T06:01:19.788Z,94753
2018-05-15T06:03:47.861Z,94757
2018-05-15T06:06:15.913Z,94764
2018-05-15T06:08:43.983Z,94768
2018-05-15T06:11:12.042Z,94760
2018-05-15T06:13:40.114Z,94767
2018-05-15T06:16:08.165Z,94757
2018-05-15T06:18:36.231Z,94774
2018-05-15T06:21:04.371Z,94776
2018-05-15T06:23:32.356Z,94776
2018-05-15T06:26:00.417Z,94781
2018-05-15T06:28:28.673Z,94788
2018-05-15T06:30:56.737Z,94786
2018-05-15T06:33:24.804Z,94791
2018-05-15T06:35:52.876Z,94798
2018-05-15T06:38:20.949Z,94800
2018-05-15T06:40:49.022Z,94811
2018-05-15T06:43:17.074Z,94800
2018-05-15T06:45:45.152Z,94807
2018-05-15T06:48:13.199Z,94804
2018-05-15T06:50:41.268Z,94804
2018-05-15T06:53:09.327Z,94806
2018-05-15T06:55:37.397Z,94800
2018-05-15T06:58:05.460Z,94807
2018-05-15T07:00:33.524Z,94798
2018-05-15T07:03:01.580Z,94802
2018-05-15T07:05:29.652Z,94797
2018-05-15T07:07:57.713Z,94804
2018-05-15T07:10:25.785Z,94801
2018-05-15T07:12:53.840Z,94797
2018-05-15T07:15:21.914Z,94799
2018-05-15T07:17:49.988Z,94807
2018-05-15T07:20:18.055Z,94809
2018-05-15T07:22:46.108Z,94803
2018-05-15T07:25:14.170Z,94807
2018-05-15T07:27:42.222Z,94815
2018-05-15T07:30:10.285Z,94815
2018-05-15T07:32:38.356Z,94813
2018-05-15T07:35:06.424Z,94817
2018-05-15T07:37:34.508Z,94824
2018-05-15T07:40:02.572Z,94828
2018-05-15T07:42:30.639Z,94829
2018-05-15T07:44:58.695Z,94828
2018-05-15T07:47:26.756Z,94826
2018-05-15T07:49:54.836Z,94827
2018-05-15T07:52:22.901Z,94826
2018-05-15T07:54:50.968Z,94829
2018-05-15T07:57:19.033Z,94820
2018-05-15T07:59:47.103Z,94817
2018-05-15T08:02:15.172Z,94826
2018-05-15T08:04:43.227Z,94823
2018-05-15T08:07:11.289Z,94830
2018-05-15T08:09:39.357Z,94822
2018-05-15T08:12:07.412Z,94815
2018-05-15T08:14:35.475Z,94824
2018-05-15T08:17:03.540Z,94829
2018-05-15T08:19:31.600Z,94837
2018-05-15T08:21:59.660Z,94831
2018-05-15T08:24:28.546Z,94831
2018-05-15T08:26:56.617Z,94834
2018-05-15T08:29:24.685Z,94833
2018-05-15T08:31:52.754Z,94831
2018-05-15T08:34:20.804Z,94836
2018-05-15T08:36:48.861Z,94841
2018-05-15T08:39:16.936Z,94831
2018-05-15T08:41:45.000Z,94832
2018-05-15T08:44:13.086Z,94842
2018-05-15T08:46:41.145Z,94829
2018-05-15T08:49:09.197Z,94834
2018-05-15T08:51:37.346Z,94829
2018-05-15T08:54:05.353Z,94826
2018-05-15T08:56:33.401Z,94832
2018-05-15T08:59:01.469Z,94829
2018-05-15T09:01:29.539Z,94830
2018-05-15T09:03:58.428Z,94834
2018-05-15T09:06:26.512Z,94831
2018-05-15T09:08:54.571Z,94830
2018-05-15T09:11:22.640Z,94839
2018-05-15T09:13:50.717Z,94844
2018-05-15T09:16:18.794Z,94832
2018-05-15T09:18:46.864Z,94850
2018-05-15T09:21:14.945Z,94838
2018-05-15T09:23:42.993Z,94845
2018-05-15T09:26:11.067Z,94839
2018-05-15T09:28:39.127Z,94843
2018-05-15T09:31:07.201Z,94853
2018-05-15T09:33:35.273Z,94846
2018-05-15T09:36:03.343Z,94839
2018-05-15T09:38:31.400Z,94844
2018-05-15T09:40:59.469Z,94843
2018-05-15T09:46:33.148Z,94835
2018-05-15T09:49:01.237Z,94829
2018-05-15T09:51:29.592Z,94832
2018-05-15T09:53:57.652Z,94838
2018-05-15T09:56:25.724Z,94829
2018-05-15T09:58:53.793Z,94832
2018-05-15T10:01:21.864Z,94827
2018-05-15T10:03:49.928Z,94836
2018-05-15T10:06:17.996Z,94829
2018-05-15T10:08:46.061Z,94844
2018-05-15T10:11:14.135Z,94865
2018-05-15T10:13:42.201Z,94865
2018-05-15T10:16:10.272Z,94874
2018-05-15T10:18:38.332Z,94890
2018-05-15T10:21:06.405Z,94890
2018-05-15T10:23:34.464Z,94885
2018-05-15T10:26:02.548Z,94892
2018-05-15T10:28:30.623Z,94898
2018-05-15T10:30:59.616Z,94893
2018-05-15T10:33:29.611Z,94893
2018-05-15T10:35:57.684Z,94883
2018-05-15T10:38:25.732Z,94879
2018-05-15T10:40:53.811Z,94877
2018-05-15T10:43:21.854Z,94874
2018-05-15T10:45:49.944Z,94860
2018-05-15T10:48:18.000Z,94861
2018-05-15T10:50:46.128Z,94862
2018-05-15T10:53:14.133Z,94851
2018-05-15T10:55:42.214Z,94863
2018-05-15T10:58:10.284Z,94848
2018-05-15T11:00:38.355Z,94857
2018-05-15T11:03:06.420Z,94849
2018-05-15T11:05:34.497Z,94863
2018-05-15T11:08:02.556Z,94870
2018-05-15T11:10:30.620Z,94879
2018-05-15T11:12:58.688Z,94870
2018-05-15T11:15:26.771Z,94866
2018-05-15T11:17:54.833Z,94863
2018-05-15T11:20:40.456Z,94865
2018-05-15T11:23:26.124Z,94857
2018-05-15T11:25:54.196Z,94855
2018-05-15T11:28:22.260Z,94853
2018-05-15T11:30:50.340Z,94848
2018-05-15T11:33:18.412Z,94851
2018-05-15T11:35:46.634Z,94842
2018-05-15T11:38:14.576Z,94835
2018-05-15T11:40:42.649Z,94841
2018-05-15T11:43:10.700Z,94839
2018-05-15T11:45:38.772Z,94844
2018-05-15T11:48:07.442Z,94836
2018-05-15T11:50:35.731Z,94845
2018-05-15T11:53:03.683Z,94847
2018-05-15T11:55:35.293Z,94845
2018-05-15T11:57:59.145Z,94837
2018-05-15T12:00:29.060Z,94837
2018-05-15T12:02:57.119Z,94829
2018-05-15T12:05:25.188Z,94829
2018-05-15T12:07:53.260Z,94834
2018-05-15T12:10:21.320Z,94829
2018-05-15T12:12:49.432Z,94822
2018-05-15T12:15:17.459Z,94827
2018-05-15T12:17:45.524Z,94827
2018-05-15T12:20:13.583Z,94816
2018-05-15T12:22:41.656Z,94829
2018-05-15T12:25:09.731Z,94846
2018-05-15T12:27:37.797Z,94853
2018-05-15T12:30:05.878Z,94850
2018-05-15T12:32:33.969Z,94857
2018-05-15T12:35:02.041Z,94871
2018-05-15T12:37:30.964Z,94865
2018-05-15T12:39:59.025Z,94875
2018-05-15T12:42:27.093Z,94881
2018-05-15T12:44:55.155Z,94891
2018-05-15T12:47:23.222Z,94881
2018-05-15T12:49:51.300Z,94894
2018-05-15T12:52:19.377Z,94873
2018-05-15T12:54:47.428Z,94893
2018-05-15T12:57:15.493Z,94882
2018-05-15T12:59:43.608Z,94889
2018-05-15T13:02:11.667Z,94890
2018-05-15T13:04:39.751Z,94888
2018-05-15T13:07:07.812Z,94880
2018-05-15T13:09:35.877Z,94886
2018-05-15T13:12:03.945Z,94887
2018-05-15T13:14:31.995Z,94877
2018-05-15T13:17:02.030Z,94861
2018-05-15T13:19:30.012Z,94863
2018-05-15T13:21:58.086Z,94865
2018-05-15T13:24:26.231Z,94859
2018-05-15T13:26:54.220Z,94857
2018-05-15T13:29:22.280Z,94860
2018-05-15T13:31:50.344Z,94860
2018-05-15T13:34:18.402Z,94855
2018-05-15T13:36:46.473Z,94857
2018-05-15T13:39:14.545Z,94855
2018-05-15T13:41:42.620Z,94858
2018-05-15T13:44:10.689Z,94861
2018-05-15T13:46:38.760Z,94856
2018-05-15T13:49:06.835Z,94860
2018-05-15T13:51:34.905Z,94862
2018-05-15T13:54:02.981Z,94855
2018-05-15T13:56:31.893Z,94858
2018-05-15T13:58:59.939Z,94851
2018-05-15T14:01:28.476Z,94854
2018-05-15T14:03:56.847Z,94850
2018-05-15T14:06:24.918Z,94861
2018-05-15T14:08:52.989Z,94856
2018-05-15T14:11:21.056Z,94852
2018-05-15T14:13:49.113Z,94858
2018-05-15T14:16:17.191Z,94847
2018-05-15T14:18:45.252Z,94854
2018-05-15T14:21:13.316Z,94850
2018-05-15T14:23:41.388Z,94841
2018-05-15T14:26:09.450Z,94839
2018-05-15T14:28:37.521Z,94835
2018-05-15T14:31:05.580Z,94833
2018-05-15T14:33:33.662Z,94842
2018-05-15T14:36:02.383Z,94847
2018-05-15T14:38:30.464Z,94848
2018-05-15T14:40:58.533Z,94826
2018-05-15T14:43:26.604Z,94828
2018-05-15T14:45:54.664Z,94828
2018-05-15T14:48:22.737Z,94824
2018-05-15T14:54:13.565Z,94838
2018-05-15T14:56:41.631Z,94840
2018-05-15T14:59:09.718Z,94833
2018-05-15T15:01:37.784Z,94826
2018-05-15T15:04:05.849Z,94825
2018-05-15T15:06:33.908Z,94820
2018-05-15T15:09:02.885Z,94819
2018-05-15T15:11:30.958Z,94814
2018-05-15T15:13:59.029Z,94815
2018-05-15T15:16:27.076Z,94812
2018-05-15T15:18:55.149Z,94810
2018-05-15T15:21:23.216Z,94805
2018-05-15T15:23:51.280Z,94798
2018-05-15T15:26:19.345Z,94804
2018-05-15T15:28:47.444Z,94816
2018-05-15T15:31:15.608Z,94806
2018-05-15T15:33:43.664Z,94802
2018-05-15T15:36:11.716Z,94812
2018-05-15T15:38:39.784Z,94793
2018-05-15T15:41:07.845Z,94800
2018-05-15T15:43:35.987Z,94803
2018-05-15T15:46:03.964Z,94803
2018-05-15T15:48:33.176Z,94797
2018-05-15T15:51:01.279Z,94796
2018-05-15T15:53:29.344Z,94803
2018-05-15T15:55:57.498Z,94804
2018-05-15T15:58:25.472Z,94806
2018-05-15T16:00:53.532Z,94803
2018-05-15T16:03:21.608Z,94801
2018-05-15T16:05:49.668Z,94807
2018-05-15T16:08:17.737Z,94811
2018-05-15T16:10:45.797Z,94804
2018-05-15T16:13:13.879Z,94816
2018-05-15T16:15:41.948Z,94811
2018-05-15T16:18:10.004Z,94809
2018-05-15T16:20:38.065Z,94809
2018-05-15T16:23:06.124Z,94805
2018-05-15T16:25:34.175Z,94806
2018-05-15T16:28:02.244Z,94804
2018-05-15T16:30:30.316Z,94798
2018-05-15T16:32:58.376Z,94800
2018-05-15T16:35:26.441Z,94807
2018-05-15T16:37:54.519Z,94811
2018-05-15T16:40:22.590Z,94807
2018-05-15T16:42:50.660Z,94803
2018-05-15T16:45:18.719Z,94804
2018-05-15T16:47:46.782Z,94812
2018-05-15T16:50:14.854Z,94818
2018-05-15T16:52:42.926Z,94829
2018-05-15T16:55:10.975Z,94816
2018-05-15T16:57:39.040Z,94824
2018-05-15T17:00:07.101Z,94830
2018-05-15T17:02:35.171Z,94834
2018-05-15T17:05:04.344Z,94829
2018-05-15T17:07:32.436Z,94829
2018-05-15T17:10:00.488Z,94825
2018-05-15T17:12:29.316Z,94827
2018-05-15T17:14:57.377Z,94826
2018-05-15T17:17:25.449Z,94834
2018-05-15T17:19:53.504Z,94835
2018-05-15T17:22:21.564Z,94843
2018-05-15T17:24:49.627Z,94859
2018-05-15T17:27:17.684Z,94895
2018-05-15T17:29:45.789Z,94903
2018-05-15T17:32:13.848Z,94902
2018-05-15T17:34:41.913Z,94909
2018-05-15T17:37:09.969Z,94903
2018-05-15T17:39:38.045Z,94906
2018-05-15T17:42:06.101Z,94898
2018-05-15T17:44:35.277Z,94902
2018-05-15T17:47:03.327Z,94914
2018-05-15T17:49:31.404Z,94926
2018-05-15T17:51:59.447Z,94945
2018-05-15T17:54:28.632Z,94948
2018-05-15T17:56:56.689Z,94941
2018-05-15T17:59:24.854Z,94932
2018-05-15T18:01:52.808Z,94924
2018-05-15T18:04:20.871Z,94925
2018-05-15T18:06:48.924Z,94919
2018-05-15T18:09:16.980Z,94933
2018-05-15T18:11:45.044Z,94934
2018-05-15T18:14:13.112Z,94952
2018-05-15T18:16:41.184Z,94952
2018-05-15T18:19:09.253Z,94970
2018-05-15T18:21:37.368Z,94968
2018-05-15T18:24:05.808Z,94978
2018-05-15T18:26:33.868Z,94971
2018-05-15T18:29:01.960Z,94948
2018-05-15T18:31:30.009Z,94945
2018-05-15T18:33:58.070Z,94911
2018-05-15T18:36:26.143Z,94916
2018-05-15T18:38:54.215Z,94909
2018-05-15T18:41:22.286Z,94925
2018-05-15T18:43:50.359Z,94925
2018-05-15T18:46:18.409Z,94914
2018-05-15T18:48:46.472Z,94921
2018-05-15T18:51:14.528Z,94925
2018-05-15T18:53:42.584Z,94920
2018-05-15T18:56:10.653Z,94928
2018-05-15T18:58:38.712Z,94922
2018-05-15T19:01:06.773Z,94931
2018-05-15T19:03:34.845Z,94930
2018-05-15T19:06:02.897Z,94933
2018-05-15T19:08:30.957Z,94938
2018-05-15T19:10:59.013Z,94936
2018-05-15T19:13:27.087Z,94939
2018-05-15T19:15:55.151Z,94948
2018-05-15T19:18:23.228Z,94945
2018-05-15T19:20:51.281Z,94951
2018-05-15T19:23:19.347Z,94934
2018-05-15T19:25:47.400Z,94951
2018-05-15T19:28:15.461Z,94950
2018-05-15T19:30:43.526Z,94949
2018-05-15T19:36:17.324Z,94948
2018-05-15T19:38:45.385Z,94954
2018-05-15T19:41:19.160Z,94956
2018-05-15T19:43:47.228Z,94954
2018-05-15T19:46:15.280Z,94956
2018-05-15T19:48:43.344Z,94955
2018-05-15T19:51:11.406Z,94962
2018-05-15T19:53:39.469Z,94962
2018-05-15T19:56:07.555Z,94957
2018-05-15T19:58:35.622Z,94985
2018-05-15T20:01:03.698Z,94982
2018-05-15T20:03:31.761Z,94971
2018-05-15T20:05:59.837Z,94967
2018-05-15T20:08:28.525Z,94973
2018-05-15T20:10:56.593Z,94974
2018-05-15T20:13:24.644Z,94978
2018-05-15T20:15:52.704Z,94974
2018-05-15T20:18:20.755Z,94971
2018-05-15T20:20:48.839Z,94969
2018-05-15T20:23:16.895Z,94968
2018-05-15T20:25:44.970Z,94959
2018-05-15T20:28:13.035Z,94968
2018-05-15T20:30:41.112Z,94974
2018-05-15T20:33:09.172Z,94973
2018-05-15T20:35:37.676Z,94969
2018-05-15T20:38:05.728Z,94966
2018-05-15T20:40:33.796Z,94969
2018-05-15T20:43:01.856Z,94973
2018-05-15T20:45:29.924Z,94974
2018-05-15T20:47:57.981Z,94978
2018-05-15T20:50:26.049Z,94980
2018-05-15T20:52:54.096Z,94978
2018-05-15T20:55:22.178Z,94982
2018-05-15T20:57:50.236Z,94977
2018-05-15T21:00:18.316Z,94971
2018-05-15T21:02:46.413Z,94981
2018-05-15T21:05:14.485Z,94978
2018-05-15T21:07:42.547Z,94978
2018-05-15T21:10:10.616Z,94991
2018-05-15T21:12:38.676Z,94973
2018-05-15T21:15:06.824Z,94981
2018-05-15T21:17:34.822Z,94970
2018-05-15T21:20:02.876Z,94967
2018-05-15T21:22:30.939Z,94971
2018-05-15T21:24:59.013Z,94970
2018-05-15T21:27:28.192Z,94970
2018-05-15T21:29:56.263Z,94967
2018-05-15T21:32:24.334Z,94976
2018-05-15T21:34:52.392Z,94967
2018-05-15T21:37:20.473Z,94970
2018-05-15T21:39:48.557Z,94970
2018-05-15T21:42:16.632Z,94966
2018-05-15T21:44:44.708Z,94966
2018-05-15T21:47:12.796Z,94967
2018-05-15T21:49:40.855Z,94972
2018-05-15T21:52:08.900Z,94977
2018-05-15T21:54:36.992Z,94970
2018-05-15T21:57:05.044Z,94971
2018-05-15T21:59:33.132Z,94985
2018-05-15T22:02:01.216Z,94984
2018-05-15T22:04:29.272Z,94984
2018-05-15T22:06:57.332Z,94990
2018-05-15T22:09:25.470Z,94990
2018-05-15T22:12:11.141Z,94991
2018-05-15T22:14:56.674Z,94994
2018-05-15T22:17:42.443Z,94983
2018-05-15T22:20:28.117Z,94999
2018-05-15T22:22:55.420Z,94992
2018-05-15T22:25:23.485Z,94990
2018-05-15T22:27:51.552Z,94990
2018-05-15T22:30:19.617Z,94987
2018-05-15T22:32:47.676Z,95000
2018-05-15T22:35:15.740Z,94995
2018-05-15T22:37:43.799Z,94998
2018-05-15T22:40:11.876Z,94997
2018-05-15T22:42:39.927Z,94990
2018-05-15T22:45:07.984Z,94996
2018-05-15T22:47:36.052Z,94991
2018-05-15T22:50:04.113Z,94989
2018-05-15T22:52:33.096Z,94986
2018-05-15T22:55:01.154Z,94988
2018-05-15T22:57:29.220Z,94990
2018-05-15T22:59:57.283Z,94987
2018-05-15T23:02:25.352Z,94989
2018-05-15T23:04:53.410Z,94990
2018-05-15T23:07:21.504Z,95001
2018-05-15T23:09:49.576Z,94992
2018-05-15T23:12:17.639Z,94986
2018-05-15T23:14:45.712Z,94993
2018-05-15T23:17:13.781Z,94992
2018-05-15T23:19:41.875Z,94986
2018-05-15T23:22:09.968Z,94978
2018-05-15T23:24:38.040Z,94974
2018-05-15T23:27:06.120Z,94981
2018-05-15T23:29:34.179Z,94975
2018-05-15T23:32:02.262Z,94976
2018-05-15T23:34:30.313Z,94981
2018-05-15T23:36:58.397Z,94993
2018-05-15T23:39:26.449Z,94986
2018-05-15T23:41:54.524Z,94988
2018-05-15T23:44:22.592Z,94988
2018-05-15T23:46:50.668Z,94976
2018-05-15T23:49:18.740Z,94985
2018-05-15T23:51:46.824Z,94983
2018-05-15T23:54:14.891Z,94977
2018-05-15T23:56:42.976Z,94983
2018-05-15T23:59:11.033Z,94976
